sensor_id;sensor_type;location;lat;lon;timestamp;P1;durP1;ratioP1;P2;durP2;ratioP2
36573;SDS011;22578;42.668;23.232;2023-03-01T00:00:30;1.80;;;1.70;;
36573;SDS011;22578;42.668;23.232;2023-03-01T00:03:50;1.00;;;1.00;;
36573;SDS011;22578;42.668;23.232;2023-03-01T00:07:11;1.20;;;1.20;;
36573;SDS011;22578;42.668;23.232;2023-03-01T00:10:31;1.75;;;1.65;;
36573;SDS011;22578;42.668;23.232;2023-03-01T00:13:53;1.10;;;1.10;;
36573;SDS011;22578;42.668;23.232;2023-03-01T00:17:15;1.65;;;1.55;;
36573;SDS011;22578;42.668;23.232;2023-03-01T00:20:35;1.00;;;1.00;;
36573;SDS011;22578;42.668;23.232;2023-03-01T00:23:56;1.15;;;1.15;;
36573;SDS011;22578;42.668;23.232;2023-03-01T00:27:16;1.00;;;1.00;;
36573;SDS011;22578;42.668;23.232;2023-03-01T00:30:37;1.20;;;1.20;;
36573;SDS011;22578;42.668;23.232;2023-03-01T00:33:58;1.00;;;1.00;;
36573;SDS011;22578;42.668;23.232;2023-03-01T00:37:20;1.00;;;1.00;;
36573;SDS011;22578;42.668;23.232;2023-03-01T00:40:41;1.00;;;1.00;;
36573;SDS011;22578;42.668;23.232;2023-03-01T00:44:02;1.00;;;1.00;;
36573;SDS011;22578;42.668;23.232;2023-03-01T00:47:22;1.00;;;1.00;;
36573;SDS011;22578;42.668;23.232;2023-03-01T00:50:43;0.90;;;0.90;;
36573;SDS011;22578;42.668;23.232;2023-03-01T00:54:03;1.23;;;1.23;;
36573;SDS011;22578;42.668;23.232;2023-03-01T00:57:24;1.00;;;1.00;;
36573;SDS011;22578;42.668;23.232;2023-03-01T01:00:44;1.05;;;1.05;;
36573;SDS011;22578;42.668;23.232;2023-03-01T01:04:06;1.00;;;1.00;;
36573;SDS011;22578;42.668;23.232;2023-03-01T01:07:27;1.00;;;1.00;;
36573;SDS011;22578;42.668;23.232;2023-03-01T01:10:48;1.00;;;1.00;;
36573;SDS011;22578;42.668;23.232;2023-03-01T01:14:08;1.10;;;1.10;;
36573;SDS011;22578;42.668;23.232;2023-03-01T01:17:29;0.93;;;0.93;;
36573;SDS011;22578;42.668;23.232;2023-03-01T01:20:49;1.00;;;1.00;;
36573;SDS011;22578;42.668;23.232;2023-03-01T01:24:10;0.98;;;0.98;;
36573;SDS011;22578;42.668;23.232;2023-03-01T01:27:31;1.00;;;1.00;;
36573;SDS011;22578;42.668;23.232;2023-03-01T01:30:51;1.00;;;1.00;;
36573;SDS011;22578;42.668;23.232;2023-03-01T01:34:13;1.00;;;1.00;;
36573;SDS011;22578;42.668;23.232;2023-03-01T01:37:38;1.05;;;1.05;;
36573;SDS011;22578;42.668;23.232;2023-03-01T01:40:58;1.50;;;1.40;;
36573;SDS011;22578;42.668;23.232;2023-03-01T01:44:22;1.00;;;1.00;;
36573;SDS011;22578;42.668;23.232;2023-03-01T01:47:45;1.10;;;1.10;;
36573;SDS011;22578;42.668;23.232;2023-03-01T01:51:13;1.55;;;1.45;;
36573;SDS011;22578;42.668;23.232;2023-03-01T01:54:39;1.10;;;1.10;;
36573;SDS011;22578;42.668;23.232;2023-03-01T01:58:04;1.02;;;1.02;;
36573;SDS011;22578;42.668;23.232;2023-03-01T02:01:25;1.30;;;1.30;;
36573;SDS011;22578;42.668;23.232;2023-03-01T02:04:47;0.90;;;0.90;;
36573;SDS011;22578;42.668;23.232;2023-03-01T02:08:09;1.48;;;1.38;;
36573;SDS011;22578;42.668;23.232;2023-03-01T02:11:31;1.30;;;1.30;;
36573;SDS011;22578;42.668;23.232;2023-03-01T02:14:52;1.00;;;1.00;;
36573;SDS011;22578;42.668;23.232;2023-03-01T02:18:14;1.10;;;1.10;;
36573;SDS011;22578;42.668;23.232;2023-03-01T02:21:49;1.05;;;1.05;;
36573;SDS011;22578;42.668;23.232;2023-03-01T02:29:27;1.00;;;1.00;;
36573;SDS011;22578;42.668;23.232;2023-03-01T02:32:48;1.00;;;1.00;;
36573;SDS011;22578;42.668;23.232;2023-03-01T02:36:10;1.00;;;1.00;;
36573;SDS011;22578;42.668;23.232;2023-03-01T02:39:36;1.20;;;1.20;;
36573;SDS011;22578;42.668;23.232;2023-03-01T02:43:01;1.00;;;1.00;;
36573;SDS011;22578;42.668;23.232;2023-03-01T02:46:24;1.00;;;1.00;;
36573;SDS011;22578;42.668;23.232;2023-03-01T02:49:45;1.02;;;1.02;;
36573;SDS011;22578;42.668;23.232;2023-03-01T02:53:11;1.00;;;1.00;;
36573;SDS011;22578;42.668;23.232;2023-03-01T02:56:35;1.05;;;1.05;;
36573;SDS011;22578;42.668;23.232;2023-03-01T02:59:56;1.00;;;1.00;;
36573;SDS011;22578;42.668;23.232;2023-03-01T03:03:19;1.10;;;1.10;;
36573;SDS011;22578;42.668;23.232;2023-03-01T03:06:40;1.00;;;1.00;;
36573;SDS011;22578;42.668;23.232;2023-03-01T03:10:01;1.00;;;1.00;;
36573;SDS011;22578;42.668;23.232;2023-03-01T03:13:23;1.00;;;1.00;;
36573;SDS011;22578;42.668;23.232;2023-03-01T03:16:49;1.52;;;1.42;;
36573;SDS011;22578;42.668;23.232;2023-03-01T03:20:11;1.00;;;1.00;;
36573;SDS011;22578;42.668;23.232;2023-03-01T03:23:32;1.00;;;1.00;;
36573;SDS011;22578;42.668;23.232;2023-03-01T03:26:53;1.00;;;1.00;;
36573;SDS011;22578;42.668;23.232;2023-03-01T03:30:14;1.10;;;1.10;;
36573;SDS011;22578;42.668;23.232;2023-03-01T03:33:38;1.08;;;1.08;;
36573;SDS011;22578;42.668;23.232;2023-03-01T03:36:59;1.00;;;1.00;;
36573;SDS011;22578;42.668;23.232;2023-03-01T03:40:19;1.20;;;1.20;;
36573;SDS011;22578;42.668;23.232;2023-03-01T03:43:40;1.23;;;1.23;;
36573;SDS011;22578;42.668;23.232;2023-03-01T03:47:02;1.48;;;1.42;;
36573;SDS011;22578;42.668;23.232;2023-03-01T03:50:22;1.00;;;1.00;;
36573;SDS011;22578;42.668;23.232;2023-03-01T03:53:43;1.10;;;1.10;;
36573;SDS011;22578;42.668;23.232;2023-03-01T03:57:04;2.75;;;1.40;;
36573;SDS011;22578;42.668;23.232;2023-03-01T04:00:24;1.00;;;1.00;;
36573;SDS011;22578;42.668;23.232;2023-03-01T04:03:44;1.10;;;1.10;;
36573;SDS011;22578;42.668;23.232;2023-03-01T04:07:08;1.02;;;1.02;;
36573;SDS011;22578;42.668;23.232;2023-03-01T04:10:32;1.00;;;1.00;;
36573;SDS011;22578;42.668;23.232;2023-03-01T04:13:57;1.00;;;1.00;;
36573;SDS011;22578;42.668;23.232;2023-03-01T04:17:18;1.10;;;1.10;;
36573;SDS011;22578;42.668;23.232;2023-03-01T04:20:39;1.58;;;1.52;;
36573;SDS011;22578;42.668;23.232;2023-03-01T04:23:59;1.38;;;1.38;;
36573;SDS011;22578;42.668;23.232;2023-03-01T04:27:19;1.58;;;1.48;;
36573;SDS011;22578;42.668;23.232;2023-03-01T04:30:40;1.20;;;1.20;;
36573;SDS011;22578;42.668;23.232;2023-03-01T04:34:01;1.48;;;1.48;;
36573;SDS011;22578;42.668;23.232;2023-03-01T04:37:22;1.00;;;1.00;;
36573;SDS011;22578;42.668;23.232;2023-03-01T04:40:43;1.52;;;1.48;;
36573;SDS011;22578;42.668;23.232;2023-03-01T04:44:04;1.10;;;1.10;;
36573;SDS011;22578;42.668;23.232;2023-03-01T04:47:25;1.27;;;1.27;;
36573;SDS011;22578;42.668;23.232;2023-03-01T04:50:45;1.27;;;1.27;;
36573;SDS011;22578;42.668;23.232;2023-03-01T04:54:06;1.30;;;1.30;;
36573;SDS011;22578;42.668;23.232;2023-03-01T04:57:29;1.27;;;1.27;;
36573;SDS011;22578;42.668;23.232;2023-03-01T05:00:49;1.23;;;1.23;;
36573;SDS011;22578;42.668;23.232;2023-03-01T05:04:10;1.20;;;1.20;;
36573;SDS011;22578;42.668;23.232;2023-03-01T05:07:33;1.00;;;1.00;;
36573;SDS011;22578;42.668;23.232;2023-03-01T05:10:53;1.23;;;1.23;;
36573;SDS011;22578;42.668;23.232;2023-03-01T05:14:14;1.00;;;1.00;;
36573;SDS011;22578;42.668;23.232;2023-03-01T05:17:34;1.00;;;1.00;;
36573;SDS011;22578;42.668;23.232;2023-03-01T05:20:55;1.05;;;1.05;;
36573;SDS011;22578;42.668;23.232;2023-03-01T05:24:24;1.10;;;1.10;;
36573;SDS011;22578;42.668;23.232;2023-03-01T05:27:44;0.98;;;0.98;;
36573;SDS011;22578;42.668;23.232;2023-03-01T05:31:05;1.05;;;1.05;;
36573;SDS011;22578;42.668;23.232;2023-03-01T05:34:33;1.15;;;1.15;;
36573;SDS011;22578;42.668;23.232;2023-03-01T05:37:55;1.10;;;1.10;;
36573;SDS011;22578;42.668;23.232;2023-03-01T05:41:15;1.30;;;1.30;;
36573;SDS011;22578;42.668;23.232;2023-03-01T05:44:36;1.00;;;1.00;;
36573;SDS011;22578;42.668;23.232;2023-03-01T05:47:57;1.02;;;1.02;;
36573;SDS011;22578;42.668;23.232;2023-03-01T05:51:18;1.20;;;1.20;;
36573;SDS011;22578;42.668;23.232;2023-03-01T05:54:38;1.05;;;1.05;;
36573;SDS011;22578;42.668;23.232;2023-03-01T05:57:59;1.00;;;1.00;;
36573;SDS011;22578;42.668;23.232;2023-03-01T06:01:20;1.05;;;1.05;;
36573;SDS011;22578;42.668;23.232;2023-03-01T06:04:41;1.00;;;1.00;;
36573;SDS011;22578;42.668;23.232;2023-03-01T06:08:02;1.00;;;1.00;;
36573;SDS011;22578;42.668;23.232;2023-03-01T06:11:22;1.00;;;1.00;;
36573;SDS011;22578;42.668;23.232;2023-03-01T06:14:44;1.00;;;1.00;;
36573;SDS011;22578;42.668;23.232;2023-03-01T06:18:06;1.40;;;1.38;;
36573;SDS011;22578;42.668;23.232;2023-03-01T06:21:26;1.20;;;1.20;;
36573;SDS011;22578;42.668;23.232;2023-03-01T06:24:46;1.00;;;1.00;;
36573;SDS011;22578;42.668;23.232;2023-03-01T06:28:07;1.33;;;1.33;;
36573;SDS011;22578;42.668;23.232;2023-03-01T06:31:27;1.20;;;1.20;;
36573;SDS011;22578;42.668;23.232;2023-03-01T06:34:48;1.10;;;1.10;;
36573;SDS011;22578;42.668;23.232;2023-03-01T06:38:08;1.17;;;1.17;;
36573;SDS011;22578;42.668;23.232;2023-03-01T06:41:29;1.10;;;1.10;;
36573;SDS011;22578;42.668;23.232;2023-03-01T06:44:49;1.10;;;1.10;;
36573;SDS011;22578;42.668;23.232;2023-03-01T06:48:10;1.20;;;1.20;;
36573;SDS011;22578;42.668;23.232;2023-03-01T06:51:30;1.30;;;1.30;;
36573;SDS011;22578;42.668;23.232;2023-03-01T06:54:51;1.02;;;1.02;;
36573;SDS011;22578;42.668;23.232;2023-03-01T06:58:11;1.33;;;1.33;;
36573;SDS011;22578;42.668;23.232;2023-03-01T07:01:31;1.00;;;1.00;;
36573;SDS011;22578;42.668;23.232;2023-03-01T07:04:52;1.20;;;1.20;;
36573;SDS011;22578;42.668;23.232;2023-03-01T07:08:12;1.30;;;1.30;;
36573;SDS011;22578;42.668;23.232;2023-03-01T07:11:34;1.10;;;1.10;;
36573;SDS011;22578;42.668;23.232;2023-03-01T07:14:54;1.00;;;1.00;;
36573;SDS011;22578;42.668;23.232;2023-03-01T07:18:14;1.00;;;1.00;;
36573;SDS011;22578;42.668;23.232;2023-03-01T07:21:35;1.10;;;1.10;;
36573;SDS011;22578;42.668;23.232;2023-03-01T07:24:56;1.30;;;1.30;;
36573;SDS011;22578;42.668;23.232;2023-03-01T07:28:16;1.00;;;1.00;;
36573;SDS011;22578;42.668;23.232;2023-03-01T07:31:37;1.55;;;1.48;;
36573;SDS011;22578;42.668;23.232;2023-03-01T07:34:57;1.08;;;1.08;;
36573;SDS011;22578;42.668;23.232;2023-03-01T07:38:18;1.55;;;1.45;;
36573;SDS011;22578;42.668;23.232;2023-03-01T07:41:38;1.02;;;1.02;;
36573;SDS011;22578;42.668;23.232;2023-03-01T07:44:58;0.90;;;0.90;;
36573;SDS011;22578;42.668;23.232;2023-03-01T07:48:19;1.10;;;1.10;;
36573;SDS011;22578;42.668;23.232;2023-03-01T07:51:39;1.00;;;1.00;;
36573;SDS011;22578;42.668;23.232;2023-03-01T07:54:59;1.00;;;1.00;;
36573;SDS011;22578;42.668;23.232;2023-03-01T07:58:20;1.00;;;1.00;;
36573;SDS011;22578;42.668;23.232;2023-03-01T08:01:40;1.00;;;1.00;;
36573;SDS011;22578;42.668;23.232;2023-03-01T08:05:00;1.10;;;1.10;;
36573;SDS011;22578;42.668;23.232;2023-03-01T08:08:21;1.10;;;1.10;;
36573;SDS011;22578;42.668;23.232;2023-03-01T08:11:41;1.00;;;1.00;;
36573;SDS011;22578;42.668;23.232;2023-03-01T08:15:02;1.10;;;1.10;;
36573;SDS011;22578;42.668;23.232;2023-03-01T08:18:22;1.00;;;1.00;;
36573;SDS011;22578;42.668;23.232;2023-03-01T08:21:45;1.10;;;1.10;;
36573;SDS011;22578;42.668;23.232;2023-03-01T08:25:05;1.15;;;1.15;;
36573;SDS011;22578;42.668;23.232;2023-03-01T08:28:26;1.00;;;1.00;;
36573;SDS011;22578;42.668;23.232;2023-03-01T08:31:46;0.90;;;0.90;;
36573;SDS011;22578;42.668;23.232;2023-03-01T08:35:07;0.90;;;0.90;;
36573;SDS011;22578;42.668;23.232;2023-03-01T08:38:28;1.00;;;1.00;;
36573;SDS011;22578;42.668;23.232;2023-03-01T08:41:48;1.00;;;1.00;;
36573;SDS011;22578;42.668;23.232;2023-03-01T08:45:09;1.08;;;1.08;;
36573;SDS011;22578;42.668;23.232;2023-03-01T08:48:30;0.90;;;0.90;;
36573;SDS011;22578;42.668;23.232;2023-03-01T08:51:51;0.98;;;0.98;;
36573;SDS011;22578;42.668;23.232;2023-03-01T08:55:11;1.00;;;1.00;;
36573;SDS011;22578;42.668;23.232;2023-03-01T08:58:31;1.48;;;1.45;;
36573;SDS011;22578;42.668;23.232;2023-03-01T09:01:52;0.90;;;0.90;;
36573;SDS011;22578;42.668;23.232;2023-03-01T09:05:13;1.00;;;1.00;;
36573;SDS011;22578;42.668;23.232;2023-03-01T09:08:37;1.17;;;1.17;;
36573;SDS011;22578;42.668;23.232;2023-03-01T09:11:58;1.00;;;1.00;;
36573;SDS011;22578;42.668;23.232;2023-03-01T09:15:18;1.10;;;1.10;;
36573;SDS011;22578;42.668;23.232;2023-03-01T09:18:39;1.27;;;1.27;;
36573;SDS011;22578;42.668;23.232;2023-03-01T09:22:00;1.10;;;1.10;;
36573;SDS011;22578;42.668;23.232;2023-03-01T09:25:20;1.05;;;1.05;;
36573;SDS011;22578;42.668;23.232;2023-03-01T09:28:41;1.05;;;1.05;;
36573;SDS011;22578;42.668;23.232;2023-03-01T09:32:01;1.00;;;1.00;;
36573;SDS011;22578;42.668;23.232;2023-03-01T09:35:21;1.00;;;1.00;;
36573;SDS011;22578;42.668;23.232;2023-03-01T09:38:43;1.33;;;1.33;;
36573;SDS011;22578;42.668;23.232;2023-03-01T09:42:04;1.17;;;1.17;;
36573;SDS011;22578;42.668;23.232;2023-03-01T09:45:26;1.00;;;1.00;;
36573;SDS011;22578;42.668;23.232;2023-03-01T09:48:54;0.95;;;0.95;;
36573;SDS011;22578;42.668;23.232;2023-03-01T09:56:11;1.00;;;1.00;;
36573;SDS011;22578;42.668;23.232;2023-03-01T09:59:37;0.90;;;0.90;;
36573;SDS011;22578;42.668;23.232;2023-03-01T10:17:43;1.00;;;1.00;;
36573;SDS011;22578;42.668;23.232;2023-03-01T10:21:40;1.00;;;1.00;;
36573;SDS011;22578;42.668;23.232;2023-03-01T10:25:03;1.30;;;1.30;;
36573;SDS011;22578;42.668;23.232;2023-03-01T10:32:12;1.17;;;1.17;;
36573;SDS011;22578;42.668;23.232;2023-03-01T10:35:33;1.20;;;1.20;;
36573;SDS011;22578;42.668;23.232;2023-03-01T10:38:55;1.10;;;1.10;;
36573;SDS011;22578;42.668;23.232;2023-03-01T10:42:19;1.15;;;1.15;;
36573;SDS011;22578;42.668;23.232;2023-03-01T10:45:46;1.10;;;1.10;;
36573;SDS011;22578;42.668;23.232;2023-03-01T10:52:40;1.17;;;1.17;;
36573;SDS011;22578;42.668;23.232;2023-03-01T10:59:33;1.42;;;1.33;;
36573;SDS011;22578;42.668;23.232;2023-03-01T11:06:22;1.60;;;1.50;;
36573;SDS011;22578;42.668;23.232;2023-03-01T11:09:42;1.45;;;1.38;;
36573;SDS011;22578;42.668;23.232;2023-03-01T11:13:13;1.13;;;1.13;;
36573;SDS011;22578;42.668;23.232;2023-03-01T11:16:40;1.00;;;1.00;;
36573;SDS011;22578;42.668;23.232;2023-03-01T11:23:30;1.10;;;1.10;;
36573;SDS011;22578;42.668;23.232;2023-03-01T11:26:53;1.10;;;1.10;;
36573;SDS011;22578;42.668;23.232;2023-03-01T11:33:55;1.00;;;1.00;;
36573;SDS011;22578;42.668;23.232;2023-03-01T11:37:55;1.63;;;1.52;;
36573;SDS011;22578;42.668;23.232;2023-03-01T11:41:17;1.85;;;1.75;;
36573;SDS011;22578;42.668;23.232;2023-03-01T11:44:41;1.08;;;1.08;;
36573;SDS011;22578;42.668;23.232;2023-03-01T12:10:19;1.20;;;1.15;;
36573;SDS011;22578;42.668;23.232;2023-03-01T12:17:23;1.20;;;1.20;;
36573;SDS011;22578;42.668;23.232;2023-03-01T12:21:52;0.90;;;0.90;;
36573;SDS011;22578;42.668;23.232;2023-03-01T12:32:30;1.10;;;1.10;;
36573;SDS011;22578;42.668;23.232;2023-03-01T12:43:03;1.00;;;1.00;;
36573;SDS011;22578;42.668;23.232;2023-03-01T12:50:48;2.35;;;2.15;;
36573;SDS011;22578;42.668;23.232;2023-03-01T12:54:14;0.98;;;0.98;;
36573;SDS011;22578;42.668;23.232;2023-03-01T12:57:40;1.63;;;1.52;;
36573;SDS011;22578;42.668;23.232;2023-03-01T13:04:45;3.30;;;2.00;;
36573;SDS011;22578;42.668;23.232;2023-03-01T13:19:57;1.00;;;1.00;;
36573;SDS011;22578;42.668;23.232;2023-03-01T13:27:08;1.50;;;1.40;;
36573;SDS011;22578;42.668;23.232;2023-03-01T13:37:19;1.42;;;1.42;;
36573;SDS011;22578;42.668;23.232;2023-03-01T13:44:24;1.10;;;1.10;;
36573;SDS011;22578;42.668;23.232;2023-03-01T13:47:54;1.17;;;1.13;;
36573;SDS011;22578;42.668;23.232;2023-03-01T13:51:20;1.27;;;1.27;;
36573;SDS011;22578;42.668;23.232;2023-03-01T13:54:45;1.13;;;1.13;;
36573;SDS011;22578;42.668;23.232;2023-03-01T13:58:20;1.17;;;1.17;;
36573;SDS011;22578;42.668;23.232;2023-03-01T14:01:41;1.10;;;1.10;;
36573;SDS011;22578;42.668;23.232;2023-03-01T14:05:01;0.98;;;0.98;;
36573;SDS011;22578;42.668;23.232;2023-03-01T14:08:23;1.30;;;1.30;;
36573;SDS011;22578;42.668;23.232;2023-03-01T14:11:58;1.23;;;1.23;;
36573;SDS011;22578;42.668;23.232;2023-03-01T14:15:34;1.40;;;1.38;;
36573;SDS011;22578;42.668;23.232;2023-03-01T14:22:36;0.98;;;0.98;;
36573;SDS011;22578;42.668;23.232;2023-03-01T14:25:57;1.00;;;1.00;;
36573;SDS011;22578;42.668;23.232;2023-03-01T14:29:27;1.20;;;1.20;;
36573;SDS011;22578;42.668;23.232;2023-03-01T14:32:55;1.57;;;1.47;;
36573;SDS011;22578;42.668;23.232;2023-03-01T14:36:25;1.50;;;1.42;;
36573;SDS011;22578;42.668;23.232;2023-03-01T14:39:46;1.27;;;1.27;;
36573;SDS011;22578;42.668;23.232;2023-03-01T14:43:11;0.98;;;0.98;;
36573;SDS011;22578;42.668;23.232;2023-03-01T14:46:38;2.05;;;1.92;;
36573;SDS011;22578;42.668;23.232;2023-03-01T14:50:01;1.00;;;1.00;;
36573;SDS011;22578;42.668;23.232;2023-03-01T14:53:25;1.40;;;1.20;;
36573;SDS011;22578;42.668;23.232;2023-03-01T14:56:47;1.42;;;1.42;;
36573;SDS011;22578;42.668;23.232;2023-03-01T15:00:08;1.20;;;1.20;;
36573;SDS011;22578;42.668;23.232;2023-03-01T15:03:32;1.00;;;1.00;;
36573;SDS011;22578;42.668;23.232;2023-03-01T15:06:54;1.27;;;1.27;;
36573;SDS011;22578;42.668;23.232;2023-03-01T15:10:18;1.00;;;1.00;;
36573;SDS011;22578;42.668;23.232;2023-03-01T15:13:44;1.10;;;1.10;;
36573;SDS011;22578;42.668;23.232;2023-03-01T15:21:08;1.42;;;1.33;;
36573;SDS011;22578;42.668;23.232;2023-03-01T15:24:30;1.00;;;1.00;;
36573;SDS011;22578;42.668;23.232;2023-03-01T15:27:53;1.65;;;1.55;;
36573;SDS011;22578;42.668;23.232;2023-03-01T15:31:19;1.42;;;1.42;;
36573;SDS011;22578;42.668;23.232;2023-03-01T15:35:52;1.10;;;1.10;;
36573;SDS011;22578;42.668;23.232;2023-03-01T15:38:59;1.20;;;1.20;;
36573;SDS011;22578;42.668;23.232;2023-03-01T15:45:55;1.20;;;1.20;;
36573;SDS011;22578;42.668;23.232;2023-03-01T15:49:25;2.63;;;2.42;;
36573;SDS011;22578;42.668;23.232;2023-03-01T15:52:52;1.42;;;1.42;;
36573;SDS011;22578;42.668;23.232;2023-03-01T15:56:13;1.05;;;1.05;;
36573;SDS011;22578;42.668;23.232;2023-03-01T15:59:33;1.00;;;1.00;;
36573;SDS011;22578;42.668;23.232;2023-03-01T16:02:54;1.65;;;1.55;;
36573;SDS011;22578;42.668;23.232;2023-03-01T16:06:14;1.58;;;1.48;;
36573;SDS011;22578;42.668;23.232;2023-03-01T16:09:35;0.98;;;0.98;;
36573;SDS011;22578;42.668;23.232;2023-03-01T16:12:55;1.15;;;1.15;;
36573;SDS011;22578;42.668;23.232;2023-03-01T16:16:16;1.20;;;1.20;;
36573;SDS011;22578;42.668;23.232;2023-03-01T16:19:37;1.20;;;1.20;;
36573;SDS011;22578;42.668;23.232;2023-03-01T16:22:58;1.20;;;1.20;;
36573;SDS011;22578;42.668;23.232;2023-03-01T16:26:20;1.60;;;1.52;;
36573;SDS011;22578;42.668;23.232;2023-03-01T16:29:40;1.10;;;1.10;;
36573;SDS011;22578;42.668;23.232;2023-03-01T16:33:00;1.10;;;1.10;;
36573;SDS011;22578;42.668;23.232;2023-03-01T16:36:21;1.20;;;1.20;;
36573;SDS011;22578;42.668;23.232;2023-03-01T16:39:43;1.30;;;1.30;;
36573;SDS011;22578;42.668;23.232;2023-03-01T16:43:04;1.08;;;1.08;;
36573;SDS011;22578;42.668;23.232;2023-03-01T16:46:26;1.00;;;1.00;;
36573;SDS011;22578;42.668;23.232;2023-03-01T16:49:51;1.02;;;1.02;;
36573;SDS011;22578;42.668;23.232;2023-03-01T16:53:12;1.08;;;1.08;;
36573;SDS011;22578;42.668;23.232;2023-03-01T16:56:33;1.10;;;1.10;;
36573;SDS011;22578;42.668;23.232;2023-03-01T16:59:57;1.75;;;1.65;;
36573;SDS011;22578;42.668;23.232;2023-03-01T17:03:17;1.67;;;1.58;;
36573;SDS011;22578;42.668;23.232;2023-03-01T17:06:38;1.38;;;1.38;;
36573;SDS011;22578;42.668;23.232;2023-03-01T17:09:59;1.10;;;1.10;;
36573;SDS011;22578;42.668;23.232;2023-03-01T17:13:23;1.10;;;1.10;;
36573;SDS011;22578;42.668;23.232;2023-03-01T17:16:44;1.23;;;1.23;;
36573;SDS011;22578;42.668;23.232;2023-03-01T17:20:05;1.20;;;1.20;;
36573;SDS011;22578;42.668;23.232;2023-03-01T17:23:26;1.20;;;1.20;;
36573;SDS011;22578;42.668;23.232;2023-03-01T17:26:48;1.20;;;1.20;;
36573;SDS011;22578;42.668;23.232;2023-03-01T17:30:09;3.05;;;2.85;;
36573;SDS011;22578;42.668;23.232;2023-03-01T17:33:30;4.80;;;4.40;;
36573;SDS011;22578;42.668;23.232;2023-03-01T17:36:51;1.95;;;1.85;;
36573;SDS011;22578;42.668;23.232;2023-03-01T17:40:12;1.40;;;1.40;;
36573;SDS011;22578;42.668;23.232;2023-03-01T17:43:32;1.10;;;1.10;;
36573;SDS011;22578;42.668;23.232;2023-03-01T17:46:54;1.58;;;1.48;;
36573;SDS011;22578;42.668;23.232;2023-03-01T17:50:14;1.70;;;1.60;;
36573;SDS011;22578;42.668;23.232;2023-03-01T17:53:35;1.13;;;1.13;;
36573;SDS011;22578;42.668;23.232;2023-03-01T17:56:56;1.20;;;1.20;;
36573;SDS011;22578;42.668;23.232;2023-03-01T18:00:17;1.17;;;1.15;;
36573;SDS011;22578;42.668;23.232;2023-03-01T18:03:41;1.08;;;1.08;;
36573;SDS011;22578;42.668;23.232;2023-03-01T18:07:03;1.23;;;1.23;;
36573;SDS011;22578;42.668;23.232;2023-03-01T18:10:24;1.38;;;1.38;;
36573;SDS011;22578;42.668;23.232;2023-03-01T18:13:44;1.63;;;1.52;;
36573;SDS011;22578;42.668;23.232;2023-03-01T18:17:06;1.20;;;1.20;;
36573;SDS011;22578;42.668;23.232;2023-03-01T18:20:30;1.75;;;1.65;;
36573;SDS011;22578;42.668;23.232;2023-03-01T18:23:53;1.42;;;1.42;;
36573;SDS011;22578;42.668;23.232;2023-03-01T18:27:13;1.15;;;1.15;;
36573;SDS011;22578;42.668;23.232;2023-03-01T18:30:34;1.67;;;1.58;;
36573;SDS011;22578;42.668;23.232;2023-03-01T18:33:54;1.20;;;1.20;;
36573;SDS011;22578;42.668;23.232;2023-03-01T18:37:15;2.05;;;1.95;;
36573;SDS011;22578;42.668;23.232;2023-03-01T18:40:35;1.75;;;1.65;;
36573;SDS011;22578;42.668;23.232;2023-03-01T18:43:56;1.40;;;1.30;;
36573;SDS011;22578;42.668;23.232;2023-03-01T18:47:16;2.50;;;2.33;;
36573;SDS011;22578;42.668;23.232;2023-03-01T18:50:37;1.10;;;1.10;;
36573;SDS011;22578;42.668;23.232;2023-03-01T18:53:58;6.53;;;6.00;;
36573;SDS011;22578;42.668;23.232;2023-03-01T18:57:18;6.25;;;5.68;;
36573;SDS011;22578;42.668;23.232;2023-03-01T19:00:38;3.17;;;2.97;;
36573;SDS011;22578;42.668;23.232;2023-03-01T19:03:59;3.10;;;2.85;;
36573;SDS011;22578;42.668;23.232;2023-03-01T19:07:20;4.28;;;3.92;;
36573;SDS011;22578;42.668;23.232;2023-03-01T19:10:40;4.93;;;4.05;;
36573;SDS011;22578;42.668;23.232;2023-03-01T19:14:01;3.88;;;2.92;;
36573;SDS011;22578;42.668;23.232;2023-03-01T19:17:22;3.70;;;3.40;;
36573;SDS011;22578;42.668;23.232;2023-03-01T19:20:55;4.30;;;3.83;;
36573;SDS011;22578;42.668;23.232;2023-03-01T19:24:16;1.38;;;1.38;;
36573;SDS011;22578;42.668;23.232;2023-03-01T19:27:37;3.53;;;3.30;;
36573;SDS011;22578;42.668;23.232;2023-03-01T19:30:58;3.60;;;3.30;;
36573;SDS011;22578;42.668;23.232;2023-03-01T19:34:20;1.85;;;1.75;;
36573;SDS011;22578;42.668;23.232;2023-03-01T19:37:41;2.58;;;2.38;;
36573;SDS011;22578;42.668;23.232;2023-03-01T19:41:06;1.73;;;1.63;;
36573;SDS011;22578;42.668;23.232;2023-03-01T19:44:30;3.90;;;3.60;;
36573;SDS011;22578;42.668;23.232;2023-03-01T19:47:51;6.03;;;4.82;;
36573;SDS011;22578;42.668;23.232;2023-03-01T19:51:11;1.80;;;1.70;;
36573;SDS011;22578;42.668;23.232;2023-03-01T19:54:31;1.77;;;1.67;;
36573;SDS011;22578;42.668;23.232;2023-03-01T19:57:52;1.67;;;1.58;;
36573;SDS011;22578;42.668;23.232;2023-03-01T20:01:17;2.08;;;1.98;;
36573;SDS011;22578;42.668;23.232;2023-03-01T20:04:39;2.53;;;2.40;;
36573;SDS011;22578;42.668;23.232;2023-03-01T20:07:59;2.58;;;2.38;;
36573;SDS011;22578;42.668;23.232;2023-03-01T20:11:21;2.58;;;2.42;;
36573;SDS011;22578;42.668;23.232;2023-03-01T20:14:42;2.72;;;2.53;;
36573;SDS011;22578;42.668;23.232;2023-03-01T20:18:02;3.47;;;3.17;;
36573;SDS011;22578;42.668;23.232;2023-03-01T20:21:22;1.95;;;1.85;;
36573;SDS011;22578;42.668;23.232;2023-03-01T20:24:43;2.28;;;2.17;;
36573;SDS011;22578;42.668;23.232;2023-03-01T20:28:03;1.63;;;1.52;;
36573;SDS011;22578;42.668;23.232;2023-03-01T20:31:24;1.85;;;1.75;;
36573;SDS011;22578;42.668;23.232;2023-03-01T20:34:48;1.70;;;1.60;;
36573;SDS011;22578;42.668;23.232;2023-03-01T20:38:08;2.33;;;2.13;;
36573;SDS011;22578;42.668;23.232;2023-03-01T20:41:29;1.90;;;1.80;;
36573;SDS011;22578;42.668;23.232;2023-03-01T20:44:49;2.80;;;2.60;;
36573;SDS011;22578;42.668;23.232;2023-03-01T20:48:10;2.45;;;2.25;;
36573;SDS011;22578;42.668;23.232;2023-03-01T20:51:30;1.85;;;1.75;;
36573;SDS011;22578;42.668;23.232;2023-03-01T20:54:50;2.17;;;2.08;;
36573;SDS011;22578;42.668;23.232;2023-03-01T20:58:11;2.28;;;2.17;;
36573;SDS011;22578;42.668;23.232;2023-03-01T21:01:31;1.88;;;1.77;;
36573;SDS011;22578;42.668;23.232;2023-03-01T21:04:52;1.60;;;1.50;;
36573;SDS011;22578;42.668;23.232;2023-03-01T21:08:12;1.30;;;1.30;;
36573;SDS011;22578;42.668;23.232;2023-03-01T21:11:32;1.30;;;1.30;;
36573;SDS011;22578;42.668;23.232;2023-03-01T21:14:53;2.53;;;2.33;;
36573;SDS011;22578;42.668;23.232;2023-03-01T21:18:13;3.22;;;2.92;;
36573;SDS011;22578;42.668;23.232;2023-03-01T21:21:34;1.42;;;1.33;;
36573;SDS011;22578;42.668;23.232;2023-03-01T21:24:54;1.75;;;1.65;;
36573;SDS011;22578;42.668;23.232;2023-03-01T21:28:14;2.95;;;2.75;;
36573;SDS011;22578;42.668;23.232;2023-03-01T21:31:35;2.28;;;2.17;;
36573;SDS011;22578;42.668;23.232;2023-03-01T21:34:56;1.70;;;1.60;;
36573;SDS011;22578;42.668;23.232;2023-03-01T21:38:18;4.38;;;1.88;;
36573;SDS011;22578;42.668;23.232;2023-03-01T21:41:38;1.35;;;1.35;;
36573;SDS011;22578;42.668;23.232;2023-03-01T21:44:59;3.90;;;1.65;;
36573;SDS011;22578;42.668;23.232;2023-03-01T21:48:19;1.40;;;1.38;;
36573;SDS011;22578;42.668;23.232;2023-03-01T21:51:40;1.30;;;1.30;;
36573;SDS011;22578;42.668;23.232;2023-03-01T21:55:00;2.55;;;2.42;;
36573;SDS011;22578;42.668;23.232;2023-03-01T21:58:22;1.75;;;1.65;;
36573;SDS011;22578;42.668;23.232;2023-03-01T22:01:44;1.30;;;1.30;;
36573;SDS011;22578;42.668;23.232;2023-03-01T22:05:05;2.10;;;2.00;;
36573;SDS011;22578;42.668;23.232;2023-03-01T22:08:27;2.08;;;1.92;;